Time;durP1;ratioP1;P1;durP2;ratioP2;P2;SDS_P1;SDS_P2;PMS_P1;PMS_P2;Temp;Humidity;BMP_temperature;BMP_pressure;BME280_temperature;BME280_humidity;BME280_pressure;Samples;Min_cycle;Max_cycle;Signal;HPM_P1;HPM_P2
2021/03/28 19:00:27;;;;;;;6.90;2.60;;;10.60;88.60;;;9.17;100.00;101520.84;4975576;28;100631;-60
2021/03/28 19:04:03;;;;;;;5.20;2.90;;;10.60;89.10;;;9.28;100.00;101523.53;4969895;28;100335;-56
2021/03/28 19:07:37;;;;;;;6.83;2.80;;;10.60;89.80;;;9.50;100.00;101523.56;4928130;28;100132;-59
2021/03/28 19:11:14;;;;;;;4.47;2.30;;;10.70;86.80;;;9.65;100.00;101519.66;4968878;28;100754;-58
2021/03/28 19:14:42;;;;;;;4.83;2.73;;;10.80;86.10;;;9.66;100.00;101518.69;4968485;28;100476;-58
2021/03/28 19:17:57;;;;;;;4.90;2.63;;;10.80;85.80;;;9.67;100.00;101515.03;4968693;28;100488;-60
2021/03/28 19:21:23;;;;;;;4.37;2.23;;;10.90;86.50;;;9.61;100.00;101517.38;4986048;28;100123;-59
2021/03/28 19:24:47;;;;;;;5.43;2.90;;;10.90;85.50;;;9.53;100.00;101515.28;4986431;28;103378;-60
2021/03/28 19:28:27;;;;;;;5.67;2.80;;;10.90;85.60;;;9.53;100.00;101514.44;4980698;28;101017;-59
2021/03/28 19:43:31;;;;;;;5.90;3.47;;;10.90;85.40;;;9.52;100.00;101510.91;4902845;28;101538;-59
2021/03/28 20:03:20;;;;;;;4.23;2.10;;;11.00;85.80;;;9.51;100.00;101514.59;4911221;28;100348;-59
2021/03/28 20:13:46;;;;;;;5.83;2.70;;;10.90;86.50;;;9.42;100.00;101523.31;4907360;28;100460;-60
2021/03/28 20:16:59;;;;;;;3.30;2.37;;;10.90;86.50;;;9.44;100.00;101521.38;4988398;28;100269;-59
2021/03/28 20:20:11;;;;;;;4.00;2.33;;;10.90;86.30;;;9.44;100.00;101515.16;4987973;28;100329;-58
2021/03/28 20:27:30;;;;;;;5.60;2.60;;;10.80;86.70;;;9.52;100.00;101528.78;4981939;28;100442;-58
2021/03/28 20:30:44;;;;;;;7.13;2.57;;;10.90;87.30;;;9.52;100.00;101520.78;4979190;28;100320;-59
2021/03/28 20:41:30;;;;;;;5.23;2.70;;;10.90;86.90;;;9.42;100.00;101525.13;4965221;28;100580;-59
2021/03/28 20:44:43;;;;;;;4.70;2.50;;;10.90;86.30;;;9.40;100.00;101525.25;4975652;28;100102;-60
2021/03/28 20:48:10;;;;;;;5.57;2.43;;;10.90;86.30;;;9.49;100.00;101526.34;4986535;28;100121;-57
2021/03/28 20:51:43;;;;;;;3.63;2.27;;;10.90;85.80;;;9.41;100.00;101528.75;4975233;28;101597;-60
2021/03/28 20:58:45;;;;;;;4.97;2.70;;;10.90;86.30;;;9.37;100.00;101525.50;4970292;28;100285;-59
2021/03/28 21:02:01;;;;;;;4.20;2.70;;;11.00;86.70;;;9.42;100.00;101525.97;4987625;28;100008;-59
2021/03/28 21:05:17;;;;;;;5.63;2.10;;;11.00;86.50;;;9.36;100.00;101519.31;4986484;28;101751;-56
2021/03/28 21:08:42;;;;;;;3.43;2.00;;;10.90;87.50;;;9.31;100.00;101518.81;4987911;28;100502;-58
2021/03/28 21:11:57;;;;;;;4.03;1.97;;;10.90;86.90;;;9.28;100.00;101523.53;4987527;28;100158;-58
2021/03/28 21:15:41;;;;;;;4.23;2.10;;;10.90;86.30;;;9.14;100.00;101519.28;4967916;28;100137;-59
2021/03/28 21:19:05;;;;;;;4.93;2.37;;;10.90;87.00;;;9.16;100.00;101525.34;4930098;28;100768;-58
2021/03/28 21:22:18;;;;;;;7.00;3.17;;;10.90;86.50;;;9.15;100.00;101526.31;4962029;28;101024;-59
2021/03/28 21:25:35;;;;;;;4.73;2.80;;;10.80;86.40;;;9.13;100.00;101528.25;4968304;28;100378;-58
2021/03/28 21:28:47;;;;;;;6.87;2.93;;;10.80;87.00;;;9.11;100.00;101530.19;4968239;28;100501;-60
2021/03/28 21:31:58;;;;;;;5.53;2.97;;;10.80;88.10;;;9.14;100.00;101527.31;4967740;28;101075;-57
2021/03/28 21:35:40;;;;;;;6.50;2.83;;;10.70;87.70;;;9.12;100.00;101523.03;4967756;28;100219;-58
2021/03/28 21:38:55;;;;;;;5.57;3.40;;;10.70;87.80;;;9.08;100.00;101518.91;4920153;28;100379;-58
2021/03/28 21:42:08;;;;;;;6.63;3.07;;;10.70;88.40;;;9.17;100.00;101521.69;4986543;28;100029;-57
2021/03/28 21:45:36;;;;;;;6.43;3.20;;;10.70;88.40;;;9.15;100.00;101512.13;4980169;28;101135;-58
2021/03/28 21:48:54;;;;;;;7.93;3.23;;;10.70;88.80;;;9.18;100.00;101518.06;4979016;28;100595;-59
2021/03/28 21:52:29;;;;;;;6.63;3.57;;;10.70;89.00;;;9.11;100.00;101519.53;4985326;28;100279;-57
2021/03/28 21:55:46;;;;;;;7.50;3.43;;;10.60;89.30;;;9.07;100.00;101515.38;4956497;28;100428;-58
2021/03/28 21:58:58;;;;;;;7.00;3.60;;;10.60;89.50;;;9.06;100.00;101520.81;4976969;28;100866;-59
2021/03/28 22:02:17;;;;;;;4.80;3.17;;;10.60;89.80;;;9.07;100.00;101515.38;4984817;28;101506;-59
2021/03/28 22:05:30;;;;;;;6.60;3.23;;;10.50;89.90;;;9.13;100.00;101516.72;4988729;28;100297;-59
2021/03/28 22:08:52;;;;;;;9.27;4.07;;;10.50;90.00;;;9.08;100.00;101514.41;4988847;28;100195;-59
2021/03/28 22:12:06;;;;;;;9.13;3.40;;;10.50;90.00;;;9.07;100.00;101512.72;4988679;28;100900;-58
2021/03/28 22:15:31;;;;;;;5.03;3.40;;;10.50;90.00;;;9.05;100.00;101513.78;4988659;28;101000;-56
2021/03/28 22:18:53;;;;;;;6.40;3.23;;;10.50;90.10;;;9.16;100.00;101516.47;4978560;27;100188;-60
2021/03/28 22:22:11;;;;;;;4.47;2.77;;;10.50;90.00;;;9.17;100.00;101523.53;4970951;28;100663;-58
2021/03/28 22:25:23;;;;;;;6.50;3.30;;;10.50;89.90;;;9.16;100.00;101516.47;4970241;28;100720;-59
2021/03/28 22:28:37;;;;;;;5.67;3.03;;;10.50;90.00;;;9.29;100.00;101509.22;4984058;28;100425;-58
2021/03/28 22:31:50;;;;;;;6.30;3.20;;;10.60;89.30;;;9.41;100.00;101513.59;4990258;27;100305;-58
2021/03/28 22:35:08;;;;;;;5.40;3.03;;;10.60;88.80;;;9.48;100.00;101517.50;4990784;27;100505;-58
2021/03/28 22:38:26;;;;;;;4.30;2.90;;;10.70;88.30;;;9.50;100.00;101520.91;4989190;28;101571;-59
2021/03/28 22:41:40;;;;;;;7.57;3.33;;;10.70;87.80;;;9.59;100.00;101521.97;4989935;28;100557;-58
2021/03/28 22:45:09;;;;;;;5.57;2.90;;;10.80;87.20;;;9.55;100.00;101524.03;4981361;27;100311;-59
2021/03/28 22:48:23;;;;;;;6.67;2.80;;;10.80;86.90;;;9.57;100.00;101515.91;4990493;28;100462;-57
2021/03/28 22:51:49;;;;;;;4.63;2.93;;;10.90;86.90;;;9.60;100.00;101529.03;4983054;27;100838;-58
2021/03/28 22:55:01;;;;;;;4.83;2.70;;;10.90;86.30;;;9.65;100.00;101525.00;4970069;28;101148;-58
2021/03/28 22:58:30;;;;;;;7.30;2.90;;;10.90;85.80;;;9.64;100.00;101525.16;4988898;28;100026;-58
2021/03/28 23:01:52;;;;;;;7.67;2.90;;;11.00;85.80;;;9.63;100.00;101534.13;4988895;28;100386;-59
2021/03/28 23:05:18;;;;;;;7.03;2.50;;;11.00;85.90;;;9.66;100.00;101533.88;4988574;28;101394;-58
2021/03/28 23:08:31;;;;;;;4.50;2.57;;;11.10;85.80;;;9.61;100.00;101534.25;4992857;28;101291;-57
2021/03/28 23:16:04;;;;;;;3.73;2.17;;;11.10;85.80;;;9.66;100.00;101525.84;4981240;27;100674;-58
2021/03/28 23:22:48;;;;;;;4.10;2.17;;;11.10;85.40;;;9.80;100.00;101525.59;4983712;28;100649;-58
2021/03/28 23:26:00;;;;;;;5.33;2.27;;;11.10;85.00;;;9.85;100.00;101520.75;4986217;28;100171;-58
2021/03/28 23:29:26;;;;;;;5.80;2.47;;;11.20;84.60;;;9.87;100.00;101523.31;4988587;27;100280;-58
2021/03/28 23:32:38;;;;;;;5.20;2.27;;;11.20;84.40;;;9.88;100.00;101533.03;4981577;27;101295;-60
2021/03/28 23:35:50;;;;;;;6.20;2.53;;;11.20;84.20;;;9.91;100.00;101536.28;4969434;28;101358;-57
2021/03/28 23:39:01;;;;;;;5.30;2.27;;;11.30;84.00;;;9.92;100.00;101537.13;4986057;28;100061;-59
2021/03/28 23:42:15;;;;;;;5.87;2.30;;;11.30;83.80;;;9.93;100.00;101539.69;4989803;27;100190;-57
2021/03/28 23:45:30;;;;;;;3.40;2.17;;;11.30;83.60;;;9.91;100.00;101544.31;4987738;27;100820;-59
2021/03/28 23:48:44;;;;;;;4.00;2.20;;;11.30;83.60;;;9.89;100.00;101540.91;4984352;28;101162;-57
2021/03/28 23:51:59;;;;;;;4.43;2.10;;;11.30;83.50;;;9.87;100.00;101534.84;4968641;28;100290;-59
2021/03/28 23:55:29;;;;;;;3.03;2.30;;;11.30;83.60;;;9.86;100.00;101533.16;4969758;28;100424;-59
2021/03/28 23:58:41;;;;;;;6.30;2.07;;;11.30;83.60;;;9.81;100.00;101542.50;4979837;28;100794;-57
